Time;durP1;ratioP1;P1;durP2;ratioP2;P2;SDS_P1;SDS_P2;PMS_P1;PMS_P2;Temp;Humidity;BMP_temperature;BMP_pressure;BME280_temperature;BME280_humidity;BME280_pressure;Samples;Min_cycle;Max_cycle;Signal;HPM_P1;HPM_P2
2022/12/07 00:00:40;;;;;;;10.60;10.10;;;;;;;;;;5066702;28;20025;-68
2022/12/07 00:03:05;;;;;;;11.80;11.20;;;;;;;;;;5059512;28;20017;-68
2022/12/07 00:05:31;;;;;;;10.60;10.10;;;;;;;;;;5055060;28;20028;-68
2022/12/07 00:07:56;;;;;;;10.25;9.75;;;;;;;;;;5056990;28;20056;-69
2022/12/07 00:10:21;;;;;;;10.25;9.75;;;;;;;;;;5056969;28;20021;-68
2022/12/07 00:12:47;;;;;;;10.98;10.38;;;;;;;;;;5056743;28;20491;-68
2022/12/07 00:15:12;;;;;;;9.98;9.55;;;;;;;;;;5059839;28;20040;-68
2022/12/07 00:17:37;;;;;;;10.70;10.20;;;;;;;;;;5061522;28;20423;-68
2022/12/07 00:20:03;;;;;;;10.45;9.95;;;;;;;;;;5062902;28;20017;-68
2022/12/07 00:22:28;;;;;;;10.70;10.20;;;;;;;;;;5067912;28;20435;-68
2022/12/07 00:24:53;;;;;;;10.45;9.95;;;;;;;;;;5061175;28;20064;-67
2022/12/07 00:27:18;;;;;;;10.25;9.75;;;;;;;;;;5061880;28;20032;-68
2022/12/07 00:29:44;;;;;;;10.55;10.05;;;;;;;;;;5058844;28;20021;-67
2022/12/07 00:32:09;;;;;;;10.15;9.65;;;;;;;;;;5062590;28;20059;-68
2022/12/07 00:34:34;;;;;;;10.10;9.60;;;;;;;;;;5068183;28;20399;-70
2022/12/07 00:37:00;;;;;;;10.90;10.35;;;;;;;;;;5061491;28;20024;-69
2022/12/07 00:39:25;;;;;;;10.80;10.30;;;;;;;;;;5060523;28;20020;-69
2022/12/07 00:41:50;;;;;;;10.45;9.95;;;;;;;;;;5061803;28;20025;-68
2022/12/07 00:44:16;;;;;;;9.90;9.50;;;;;;;;;;5070959;28;20027;-68
2022/12/07 00:46:41;;;;;;;10.70;10.20;;;;;;;;;;5060637;28;20049;-67
2022/12/07 00:49:06;;;;;;;10.10;9.60;;;;;;;;;;5069588;28;20417;-68
2022/12/07 00:51:32;;;;;;;10.38;9.88;;;;;;;;;;5057708;28;20047;-68
2022/12/07 00:53:57;;;;;;;10.30;9.80;;;;;;;;;;5069405;28;20033;-69
2022/12/07 00:56:23;;;;;;;10.40;9.90;;;;;;;;;;5057895;28;20029;-68
2022/12/07 00:58:52;;;;;;;10.82;10.30;;;;;;;;;;5061463;28;20025;-69
2022/12/07 01:01:17;;;;;;;9.95;9.48;;;;;;;;;;5060637;28;20066;-69
2022/12/07 01:03:42;;;;;;;10.25;9.75;;;;;;;;;;5059884;28;20024;-68
2022/12/07 01:06:07;;;;;;;10.32;9.82;;;;;;;;;;5064128;28;20027;-69
2022/12/07 01:08:33;;;;;;;10.70;10.20;;;;;;;;;;5054157;28;20083;-69
2022/12/07 01:11:00;;;;;;;10.20;9.70;;;;;;;;;;5054259;28;20406;-68
2022/12/07 01:13:25;;;;;;;10.18;9.68;;;;;;;;;;5061421;28;20048;-68
2022/12/07 01:15:50;;;;;;;10.35;9.85;;;;;;;;;;5066794;28;20031;-68
2022/12/07 01:18:16;;;;;;;10.32;9.82;;;;;;;;;;5060021;28;20065;-68
2022/12/07 01:20:41;;;;;;;11.10;10.50;;;;;;;;;;5062958;28;20138;-68
2022/12/07 01:23:06;;;;;;;9.82;9.43;;;;;;;;;;5062649;28;20025;-68
2022/12/07 01:25:32;;;;;;;9.95;9.50;;;;;;;;;;5059117;28;20032;-68
2022/12/07 01:27:57;;;;;;;10.07;9.57;;;;;;;;;;5057404;28;20130;-68
2022/12/07 01:30:22;;;;;;;10.15;9.65;;;;;;;;;;5065765;28;20025;-68
2022/12/07 01:32:47;;;;;;;10.10;9.60;;;;;;;;;;5058790;28;20024;-68
2022/12/07 01:35:13;;;;;;;10.50;10.00;;;;;;;;;;5058657;28;20025;-68
2022/12/07 01:37:39;;;;;;;10.85;10.35;;;;;;;;;;5062824;28;20017;-69
2022/12/07 01:40:06;;;;;;;10.40;9.90;;;;;;;;;;5064603;28;20422;-68
2022/12/07 01:42:31;;;;;;;10.20;9.70;;;;;;;;;;5063858;28;20029;-69
2022/12/07 01:45:15;;;;;;;12.05;11.35;;;;;;;;;;5063446;28;20035;-69
2022/12/07 01:47:41;;;;;;;9.88;9.43;;;;;;;;;;5059707;28;20426;-68
2022/12/07 01:50:06;;;;;;;10.30;9.80;;;;;;;;;;5064454;28;20024;-68
2022/12/07 01:52:33;;;;;;;10.55;10.05;;;;;;;;;;5055283;28;20024;-69
2022/12/07 01:55:05;;;;;;;10.60;10.10;;;;;;;;;;5064182;28;20020;-68
2022/12/07 01:57:33;;;;;;;9.70;9.30;;;;;;;;;;5061522;28;20067;-68
2022/12/07 01:59:58;;;;;;;10.32;9.82;;;;;;;;;;5062457;28;20024;-69
2022/12/07 02:02:32;;;;;;;10.27;9.77;;;;;;;;;;5058729;28;20017;-69
2022/12/07 02:04:58;;;;;;;10.02;9.52;;;;;;;;;;5064062;28;20028;-69
2022/12/07 02:07:24;;;;;;;10.18;9.68;;;;;;;;;;5058655;28;20024;-69
2022/12/07 02:09:49;;;;;;;10.68;10.18;;;;;;;;;;5061392;28;20091;-68
2022/12/07 02:12:15;;;;;;;10.48;9.98;;;;;;;;;;5057064;28;20037;-69
2022/12/07 02:14:40;;;;;;;10.15;9.65;;;;;;;;;;5058214;28;20023;-67
2022/12/07 02:17:20;;;;;;;10.75;10.25;;;;;;;;;;5056962;28;20059;-69
2022/12/07 02:20:03;;;;;;;10.30;9.80;;;;;;;;;;5057334;28;20414;-68
2022/12/07 02:22:38;;;;;;;10.52;10.02;;;;;;;;;;5057722;28;20020;-68
2022/12/07 02:25:03;;;;;;;9.90;9.50;;;;;;;;;;5059641;28;20480;-67
2022/12/07 02:27:28;;;;;;;11.52;10.93;;;;;;;;;;5058624;28;20021;-68
2022/12/07 02:30:04;;;;;;;10.52;10.02;;;;;;;;;;5067209;28;20016;-68
2022/12/07 02:32:30;;;;;;;10.00;9.50;;;;;;;;;;5060631;28;20020;-68
2022/12/07 02:34:59;;;;;;;10.35;9.85;;;;;;;;;;5062343;28;20020;-68
2022/12/07 02:37:36;;;;;;;10.38;9.88;;;;;;;;;;5057738;28;20090;-67
2022/12/07 02:40:08;;;;;;;10.32;9.82;;;;;;;;;;5057672;28;20028;-67
2022/12/07 02:42:39;;;;;;;10.45;9.95;;;;;;;;;;5055629;28;20020;-68
2022/12/07 02:45:05;;;;;;;10.30;9.80;;;;;;;;;;5053631;28;20040;-67
2022/12/07 02:47:31;;;;;;;10.00;9.50;;;;;;;;;;5065184;28;20025;-68
2022/12/07 02:49:57;;;;;;;9.80;9.40;;;;;;;;;;5055815;28;20108;-69
2022/12/07 02:52:22;;;;;;;10.65;10.15;;;;;;;;;;5052825;28;20107;-68
2022/12/07 02:54:47;;;;;;;10.68;10.18;;;;;;;;;;5064660;28;20387;-69
2022/12/07 02:57:13;;;;;;;10.05;9.55;;;;;;;;;;5054615;28;20031;-68
2022/12/07 03:00:10;;;;;;;9.88;9.43;;;;;;;;;;5056743;28;20013;-69
2022/12/07 03:02:48;;;;;;;10.65;10.15;;;;;;;;;;5049876;28;20029;-69
2022/12/07 03:05:23;;;;;;;10.38;9.88;;;;;;;;;;5061482;28;20021;-68
2022/12/07 03:07:59;;;;;;;10.27;9.77;;;;;;;;;;5061957;28;20107;-68
2022/12/07 03:10:28;;;;;;;9.70;9.30;;;;;;;;;;5056177;28;20071;-68
2022/12/07 03:13:03;;;;;;;10.00;9.50;;;;;;;;;;5060500;28;20051;-69
2022/12/07 03:15:31;;;;;;;10.40;9.90;;;;;;;;;;5061979;28;20028;-67
2022/12/07 03:17:57;;;;;;;10.73;10.23;;;;;;;;;;5055264;28;20018;-69
2022/12/07 03:20:24;;;;;;;10.00;9.50;;;;;;;;;;5057037;28;20009;-68
2022/12/07 03:22:51;;;;;;;13.13;12.32;;;;;;;;;;5058672;28;20548;-69
2022/12/07 03:25:16;;;;;;;11.13;10.52;;;;;;;;;;5055161;28;20062;-68
2022/12/07 03:28:02;;;;;;;10.68;10.18;;;;;;;;;;5057046;28;20048;-69
2022/12/07 03:30:29;;;;;;;10.60;10.10;;;;;;;;;;5055735;28;20027;-68
2022/12/07 03:32:57;;;;;;;10.93;10.32;;;;;;;;;;5057931;28;20107;-69
2022/12/07 03:35:34;;;;;;;11.30;10.70;;;;;;;;;;5058775;28;20036;-69
2022/12/07 03:38:09;;;;;;;10.65;10.15;;;;;;;;;;5055052;28;20013;-69
2022/12/07 03:40:34;;;;;;;;;;;;;;;;;;5054052;28;20048;-69
2022/12/07 03:43:01;;;;;;;9.57;9.15;;;;;;;;;;5064850;28;19951;-68
2022/12/07 03:45:32;;;;;;;10.27;9.77;;;;;;;;;;5056335;28;20041;-69
2022/12/07 03:48:07;;;;;;;10.35;9.85;;;;;;;;;;5058105;28;20570;-69
2022/12/07 03:50:42;;;;;;;10.00;9.50;;;;;;;;;;5058280;28;20020;-69
2022/12/07 03:53:14;;;;;;;9.98;9.50;;;;;;;;;;5062850;28;20037;-69
2022/12/07 03:55:41;;;;;;;10.13;9.63;;;;;;;;;;5054898;28;20031;-69
2022/12/07 03:58:12;;;;;;;10.80;10.27;;;;;;;;;;5061093;28;20028;-70
2022/12/07 04:00:37;;;;;;;10.57;10.07;;;;;;;;;;5054749;28;20111;-70
2022/12/07 04:03:03;;;;;;;12.40;11.70;;;;;;;;;;5057942;28;20096;-70
2022/12/07 04:05:28;;;;;;;10.00;9.50;;;;;;;;;;5062046;28;20036;-72
2022/12/07 04:07:53;;;;;;;10.40;9.90;;;;;;;;;;5058825;28;20047;-69
2022/12/07 04:10:19;;;;;;;10.23;9.73;;;;;;;;;;5054372;28;20060;-70
2022/12/07 04:12:45;;;;;;;9.80;9.30;;;;;;;;;;5063620;28;20041;-70
2022/12/07 04:15:11;;;;;;;10.57;10.07;;;;;;;;;;5068746;28;20467;-69
2022/12/07 04:17:36;;;;;;;9.77;9.38;;;;;;;;;;5062610;28;20024;-70
2022/12/07 04:20:02;;;;;;;9.73;9.32;;;;;;;;;;5059689;28;20472;-70
2022/12/07 04:22:27;;;;;;;10.23;9.73;;;;;;;;;;5060546;28;20017;-69
2022/12/07 04:24:52;;;;;;;10.57;10.07;;;;;;;;;;5054711;28;20072;-69
2022/12/07 04:27:18;;;;;;;10.30;9.80;;;;;;;;;;5057433;28;20028;-69
2022/12/07 04:29:43;;;;;;;11.00;10.40;;;;;;;;;;5059434;28;20430;-70
2022/12/07 04:32:08;;;;;;;10.20;9.70;;;;;;;;;;5054290;28;20069;-69
2022/12/07 04:34:34;;;;;;;10.38;9.88;;;;;;;;;;5062097;28;20024;-68
2022/12/07 04:36:59;;;;;;;10.07;9.60;;;;;;;;;;5058646;28;20356;-68
2022/12/07 04:39:28;;;;;;;10.93;10.32;;;;;;;;;;5056526;28;20060;-69
2022/12/07 04:41:54;;;;;;;10.60;10.10;;;;;;;;;;5060011;28;20105;-70
2022/12/07 04:44:20;;;;;;;9.60;9.20;;;;;;;;;;5055876;28;20099;-69
2022/12/07 04:46:45;;;;;;;10.45;9.95;;;;;;;;;;5052138;28;20086;-68
2022/12/07 04:49:11;;;;;;;10.07;9.60;;;;;;;;;;5053054;28;20044;-70
2022/12/07 04:51:36;;;;;;;11.18;10.57;;;;;;;;;;5062493;28;20041;-70
2022/12/07 04:54:02;;;;;;;10.40;9.90;;;;;;;;;;5050541;28;20023;-71
2022/12/07 04:56:27;;;;;;;10.27;9.77;;;;;;;;;;5058596;28;20060;-71
2022/12/07 04:58:53;;;;;;;10.40;9.90;;;;;;;;;;5066793;28;20104;-72
2022/12/07 05:01:19;;;;;;;10.43;9.93;;;;;;;;;;5055012;28;20029;-70
2022/12/07 05:03:45;;;;;;;10.77;10.25;;;;;;;;;;5049152;28;20032;-69
2022/12/07 05:06:10;;;;;;;11.00;10.40;;;;;;;;;;5058367;28;20025;-71
2022/12/07 05:08:36;;;;;;;10.25;9.75;;;;;;;;;;5058554;28;20025;-72
2022/12/07 05:11:01;;;;;;;10.43;9.93;;;;;;;;;;5064611;28;20391;-71
2022/12/07 05:13:27;;;;;;;11.65;11.05;;;;;;;;;;5061775;28;20115;-70
2022/12/07 05:15:52;;;;;;;10.98;10.38;;;;;;;;;;5065262;28;20031;-71
2022/12/07 05:18:17;;;;;;;11.13;10.52;;;;;;;;;;5056255;28;20017;-70
2022/12/07 05:20:43;;;;;;;10.32;9.82;;;;;;;;;;5062621;28;20024;-67
2022/12/07 05:23:08;;;;;;;10.38;9.88;;;;;;;;;;5063802;28;20021;-70
2022/12/07 05:25:36;;;;;;;11.18;10.57;;;;;;;;;;5060664;28;20445;-70
2022/12/07 05:28:01;;;;;;;10.50;10.00;;;;;;;;;;5065308;28;20486;-70
2022/12/07 05:30:26;;;;;;;10.93;10.40;;;;;;;;;;5065332;28;20028;-69
2022/12/07 05:32:52;;;;;;;10.55;10.05;;;;;;;;;;5057700;28;20040;-70
2022/12/07 05:35:18;;;;;;;11.48;10.88;;;;;;;;;;5058619;28;20422;-71
2022/12/07 05:37:44;;;;;;;10.25;9.75;;;;;;;;;;5059979;28;20035;-70
2022/12/07 05:40:09;;;;;;;9.80;9.40;;;;;;;;;;5056575;28;20440;-70
2022/12/07 05:42:34;;;;;;;10.10;9.60;;;;;;;;;;5064950;28;20020;-69
2022/12/07 05:45:00;;;;;;;10.48;9.98;;;;;;;;;;5059508;28;20020;-69
2022/12/07 05:47:25;;;;;;;10.57;10.07;;;;;;;;;;5065881;28;20028;-70
2022/12/07 05:49:50;;;;;;;10.40;9.90;;;;;;;;;;5057057;28;20017;-70
2022/12/07 05:52:16;;;;;;;10.82;10.27;;;;;;;;;;5059998;28;20032;-68
2022/12/07 05:54:41;;;;;;;11.27;10.68;;;;;;;;;;5059332;28;20029;-72
2022/12/07 05:57:06;;;;;;;11.13;10.52;;;;;;;;;;5052507;28;20471;-70
2022/12/07 05:59:32;;;;;;;10.55;10.05;;;;;;;;;;5058444;28;20025;-69
2022/12/07 06:02:01;;;;;;;10.30;9.80;;;;;;;;;;5057979;28;20013;-70
2022/12/07 06:04:28;;;;;;;10.77;10.23;;;;;;;;;;5060881;28;20013;-70
2022/12/07 06:06:53;;;;;;;11.23;10.63;;;;;;;;;;5053800;28;20200;-71
2022/12/07 06:09:20;;;;;;;9.32;8.93;;;;;;;;;;5062182;28;20424;-71
2022/12/07 06:14:29;;;;;;;10.68;10.15;;;;;;;;;;5060966;28;20023;-70
2022/12/07 06:16:54;;;;;;;11.30;10.70;;;;;;;;;;5062757;28;20384;-68
2022/12/07 06:19:19;;;;;;;10.93;10.32;;;;;;;;;;5052222;28;20024;-70
2022/12/07 06:21:45;;;;;;;11.18;10.57;;;;;;;;;;5059561;28;20021;-69
2022/12/07 06:24:14;;;;;;;10.60;10.10;;;;;;;;;;5064430;28;20020;-70
2022/12/07 06:26:39;;;;;;;11.05;10.45;;;;;;;;;;5056972;28;20044;-70
2022/12/07 06:29:05;;;;;;;10.90;10.38;;;;;;;;;;5067491;28;20438;-69
2022/12/07 06:31:30;;;;;;;12.18;11.50;;;;;;;;;;5051975;28;20100;-70
2022/12/07 06:33:59;;;;;;;10.38;9.88;;;;;;;;;;5058418;28;20032;-70
2022/12/07 06:36:24;;;;;;;10.43;9.93;;;;;;;;;;5049522;28;20039;-71
2022/12/07 06:38:50;;;;;;;10.30;9.80;;;;;;;;;;5060402;28;20012;-70
2022/12/07 06:41:15;;;;;;;11.13;10.52;;;;;;;;;;5057365;28;20052;-68
2022/12/07 06:43:41;;;;;;;10.05;9.55;;;;;;;;;;5059551;28;20476;-70
2022/12/07 06:46:07;;;;;;;9.95;9.45;;;;;;;;;;5053471;28;20533;-67
2022/12/07 06:48:32;;;;;;;10.23;9.73;;;;;;;;;;5058748;28;20107;-68
2022/12/07 06:50:57;;;;;;;10.50;10.00;;;;;;;;;;5061150;28;20055;-69
2022/12/07 06:53:23;;;;;;;10.27;9.77;;;;;;;;;;5059527;28;20028;-70
2022/12/07 06:55:49;;;;;;;11.00;10.40;;;;;;;;;;5058720;28;20094;-69
2022/12/07 06:58:15;;;;;;;10.55;10.05;;;;;;;;;;5053925;28;20055;-68
2022/12/07 07:00:40;;;;;;;10.13;9.63;;;;;;;;;;5049082;28;20060;-69
2022/12/07 07:03:06;;;;;;;10.48;9.98;;;;;;;;;;5057289;28;20492;-68
2022/12/07 07:05:31;;;;;;;10.48;9.98;;;;;;;;;;5056092;28;20031;-72
2022/12/07 07:07:56;;;;;;;11.18;10.60;;;;;;;;;;5047735;28;20033;-72
2022/12/07 07:10:22;;;;;;;11.35;10.75;;;;;;;;;;5056395;28;20445;-72
2022/12/07 07:12:47;;;;;;;11.93;11.30;;;;;;;;;;5051267;28;20041;-72
2022/12/07 07:15:12;;;;;;;10.30;9.80;;;;;;;;;;5054463;28;20036;-71
2022/12/07 07:17:38;;;;;;;10.43;9.93;;;;;;;;;;5057886;28;20028;-72
2022/12/07 07:20:03;;;;;;;10.15;9.65;;;;;;;;;;5044122;28;20021;-67
2022/12/07 07:22:29;;;;;;;12.13;11.45;;;;;;;;;;5059424;28;20375;-72
2022/12/07 07:24:54;;;;;;;10.15;9.65;;;;;;;;;;5052153;28;20062;-73
2022/12/07 07:27:19;;;;;;;10.50;10.00;;;;;;;;;;5051908;28;20488;-73
2022/12/07 07:29:44;;;;;;;10.07;9.57;;;;;;;;;;5056527;28;20061;-73
2022/12/07 07:32:10;;;;;;;10.10;9.60;;;;;;;;;;5061240;28;20017;-75
2022/12/07 07:34:35;;;;;;;9.80;9.40;;;;;;;;;;5061379;28;20020;-74
2022/12/07 07:37:00;;;;;;;10.35;9.85;;;;;;;;;;5056196;28;20032;-73
2022/12/07 07:39:26;;;;;;;11.10;10.50;;;;;;;;;;5053244;28;20029;-72
2022/12/07 07:41:51;;;;;;;10.43;9.93;;;;;;;;;;5055937;28;20020;-73
2022/12/07 07:44:17;;;;;;;10.75;10.25;;;;;;;;;;5054646;28;20479;-72
2022/12/07 07:46:43;;;;;;;10.20;9.70;;;;;;;;;;5056024;28;20507;-72
2022/12/07 07:49:09;;;;;;;10.45;9.95;;;;;;;;;;5056011;28;20021;-71
2022/12/07 07:51:35;;;;;;;10.57;10.07;;;;;;;;;;5058151;28;20017;-72
2022/12/07 07:54:00;;;;;;;9.88;9.40;;;;;;;;;;5064346;28;20025;-73
2022/12/07 07:56:26;;;;;;;9.93;9.43;;;;;;;;;;5064123;28;20480;-72
2022/12/07 07:58:52;;;;;;;11.02;10.43;;;;;;;;;;5055626;28;20021;-72
2022/12/07 08:01:19;;;;;;;9.95;9.45;;;;;;;;;;5049438;28;20024;-73
2022/12/07 08:03:45;;;;;;;9.90;9.40;;;;;;;;;;5058127;28;20025;-72
2022/12/07 08:06:10;;;;;;;9.75;9.30;;;;;;;;;;5062505;28;20047;-73
2022/12/07 08:08:36;;;;;;;9.88;9.40;;;;;;;;;;5059005;28;20032;-73
2022/12/07 08:11:04;;;;;;;10.07;9.57;;;;;;;;;;5059163;28;20029;-72
2022/12/07 08:13:29;;;;;;;10.02;9.52;;;;;;;;;;5052263;28;20068;-72
2022/12/07 08:15:55;;;;;;;10.07;9.57;;;;;;;;;;5059239;28;20487;-73
2022/12/07 08:18:20;;;;;;;10.30;9.80;;;;;;;;;;5056357;28;20066;-72
2022/12/07 08:20:45;;;;;;;9.90;9.40;;;;;;;;;;5051886;28;20019;-72
2022/12/07 08:23:11;;;;;;;11.02;10.50;;;;;;;;;;5057371;28;20017;-72
2022/12/07 08:25:36;;;;;;;10.50;10.00;;;;;;;;;;5050683;28;20025;-73
2022/12/07 08:28:02;;;;;;;10.73;10.23;;;;;;;;;;5054389;28;20032;-74
2022/12/07 08:30:28;;;;;;;10.48;9.98;;;;;;;;;;5053517;28;20036;-73
2022/12/07 08:32:54;;;;;;;11.25;10.68;;;;;;;;;;5059995;28;20017;-72
2022/12/07 08:35:19;;;;;;;10.07;9.57;;;;;;;;;;5062174;28;20032;-74
2022/12/07 08:37:45;;;;;;;10.70;10.20;;;;;;;;;;5055486;28;20025;-73
2022/12/07 08:40:14;;;;;;;10.27;9.77;;;;;;;;;;5064268;28;20033;-73
2022/12/07 08:42:40;;;;;;;11.27;10.68;;;;;;;;;;5049441;28;20056;-72
2022/12/07 08:45:10;;;;;;;10.60;10.10;;;;;;;;;;5056037;28;20048;-74
2022/12/07 08:47:37;;;;;;;10.77;10.27;;;;;;;;;;5057639;28;20094;-72
2022/12/07 08:50:03;;;;;;;10.80;10.30;;;;;;;;;;5058351;28;20021;-72
2022/12/07 08:52:31;;;;;;;9.93;9.52;;;;;;;;;;5058731;28;20404;-73
2022/12/07 08:54:58;;;;;;;11.60;11.02;;;;;;;;;;5053858;28;20040;-72
2022/12/07 08:57:23;;;;;;;10.93;10.43;;;;;;;;;;5059102;28;20028;-72
2022/12/07 08:59:48;;;;;;;10.18;9.75;;;;;;;;;;5056328;28;20023;-73
2022/12/07 09:02:14;;;;;;;12.10;11.50;;;;;;;;;;5058330;28;20027;-71
2022/12/07 09:04:39;;;;;;;12.23;11.63;;;;;;;;;;5047383;28;20546;-71
2022/12/07 09:07:05;;;;;;;10.10;9.70;;;;;;;;;;5058175;28;20407;-67
2022/12/07 09:09:30;;;;;;;11.10;10.60;;;;;;;;;;5063184;28;20016;-69
2022/12/07 09:11:55;;;;;;;10.52;10.02;;;;;;;;;;5051018;28;20045;-69
2022/12/07 09:14:21;;;;;;;10.77;10.27;;;;;;;;;;5058175;28;20551;-69
2022/12/07 09:16:46;;;;;;;10.82;10.32;;;;;;;;;;5059241;28;20033;-70
2022/12/07 09:19:11;;;;;;;11.27;10.77;;;;;;;;;;5055278;28;20027;-70
2022/12/07 09:21:37;;;;;;;11.23;10.73;;;;;;;;;;5068936;28;20017;-70
2022/12/07 09:24:02;;;;;;;11.00;10.50;;;;;;;;;;5058837;28;20028;-70
2022/12/07 09:26:27;;;;;;;11.45;10.93;;;;;;;;;;5061847;28;20039;-70
2022/12/07 09:28:53;;;;;;;11.30;10.80;;;;;;;;;;5057080;28;20070;-70
2022/12/07 09:31:18;;;;;;;10.43;9.93;;;;;;;;;;5053691;28;20029;-70
2022/12/07 09:33:44;;;;;;;11.10;10.60;;;;;;;;;;5053071;28;20453;-69
2022/12/07 09:36:10;;;;;;;11.02;10.52;;;;;;;;;;5062843;28;20479;-70
2022/12/07 09:38:35;;;;;;;10.52;10.02;;;;;;;;;;5062852;28;20052;-70
2022/12/07 09:41:07;;;;;;;10.10;9.70;;;;;;;;;;5053431;28;20040;-68
2022/12/07 09:43:33;;;;;;;11.13;10.63;;;;;;;;;;5060432;28;20048;-69
2022/12/07 09:45:59;;;;;;;10.68;10.18;;;;;;;;;;5053734;28;20024;-69
2022/12/07 09:48:32;;;;;;;13.55;12.85;;;;;;;;;;5051715;28;20182;-72
2022/12/07 09:50:58;;;;;;;11.95;11.35;;;;;;;;;;5047869;28;20116;-70
2022/12/07 09:53:28;;;;;;;11.05;10.55;;;;;;;;;;5048371;28;20036;-70
2022/12/07 09:55:54;;;;;;;11.23;10.73;;;;;;;;;;5052854;28;20063;-70
2022/12/07 09:58:24;;;;;;;10.45;9.95;;;;;;;;;;5056692;28;20032;-71
2022/12/07 10:01:00;;;;;;;10.52;10.02;;;;;;;;;;5052847;28;20035;-70
2022/12/07 10:03:28;;;;;;;10.70;10.20;;;;;;;;;;5053895;28;20496;-70
2022/12/07 10:05:54;;;;;;;10.80;10.30;;;;;;;;;;5051745;28;20035;-70
2022/12/07 10:08:20;;;;;;;10.82;10.32;;;;;;;;;;5054469;28;20104;-71
2022/12/07 10:10:49;;;;;;;10.50;10.00;;;;;;;;;;5055984;28;20024;-70
2022/12/07 10:13:18;;;;;;;10.48;9.98;;;;;;;;;;5056349;28;20047;-69
2022/12/07 10:15:46;;;;;;;11.00;10.50;;;;;;;;;;5055719;28;20385;-68
2022/12/07 10:18:25;;;;;;;10.23;9.73;;;;;;;;;;5053492;28;20016;-69
2022/12/07 10:20:59;;;;;;;11.13;10.63;;;;;;;;;;5052760;28;20021;-70
2022/12/07 10:23:24;;;;;;;10.70;10.20;;;;;;;;;;5047076;28;20112;-70
2022/12/07 10:25:54;;;;;;;11.73;11.13;;;;;;;;;;5049433;28;20345;-69
2022/12/07 10:28:20;;;;;;;10.75;10.25;;;;;;;;;;5049562;28;20025;-69
2022/12/07 10:30:47;;;;;;;10.73;10.23;;;;;;;;;;5051179;28;20389;-70
2022/12/07 10:33:27;;;;;;;10.82;10.32;;;;;;;;;;5044471;28;20064;-69
2022/12/07 10:35:53;;;;;;;10.35;9.85;;;;;;;;;;5047231;28;20017;-71
2022/12/07 10:38:18;;;;;;;10.70;10.20;;;;;;;;;;5052848;28;20502;-70
2022/12/07 10:40:44;;;;;;;12.05;11.45;;;;;;;;;;5041811;28;20025;-70
2022/12/07 10:43:13;;;;;;;11.98;11.38;;;;;;;;;;5042820;28;20024;-70
2022/12/07 10:45:45;;;;;;;10.50;10.00;;;;;;;;;;5043870;28;20032;-69
2022/12/07 10:48:27;;;;;;;10.45;9.95;;;;;;;;;;5052540;28;20025;-68
2022/12/07 10:50:52;;;;;;;10.95;10.45;;;;;;;;;;5052001;28;20539;-70
2022/12/07 10:53:17;;;;;;;10.85;10.35;;;;;;;;;;5055184;28;20211;-69
2022/12/07 10:55:46;;;;;;;10.80;10.30;;;;;;;;;;5048690;28;20052;-69
2022/12/07 10:58:30;;;;;;;10.77;10.27;;;;;;;;;;5052444;28;20539;-64
2022/12/07 11:00:55;;;;;;;10.95;10.45;;;;;;;;;;5045233;28;20021;-64
2022/12/07 11:03:20;;;;;;;10.65;10.15;;;;;;;;;;5057619;28;20027;-65
2022/12/07 11:05:57;;;;;;;11.02;10.52;;;;;;;;;;5066615;28;20050;-65
2022/12/07 11:08:44;;;;;;;10.63;10.13;;;;;;;;;;5054824;28;20048;-65
2022/12/07 11:11:14;;;;;;;11.25;10.65;;;;;;;;;;5048235;28;20040;-65
2022/12/07 11:13:54;;;;;;;10.30;9.80;;;;;;;;;;5054707;28;20045;-65
2022/12/07 11:16:23;;;;;;;11.43;10.82;;;;;;;;;;5061170;28;20062;-65
2022/12/07 11:19:07;;;;;;;10.30;9.80;;;;;;;;;;5051676;28;20035;-66
2022/12/07 11:21:45;;;;;;;11.05;10.52;;;;;;;;;;5049671;28;20017;-68
2022/12/07 11:24:14;;;;;;;10.32;9.82;;;;;;;;;;5044577;28;20028;-70
2022/12/07 11:26:46;;;;;;;10.68;10.18;;;;;;;;;;5051689;28;20550;-71
2022/12/07 11:29:17;;;;;;;10.18;9.68;;;;;;;;;;5055394;28;20025;-70
2022/12/07 11:31:42;;;;;;;10.77;10.27;;;;;;;;;;5050483;28;20067;-70
2022/12/07 11:34:14;;;;;;;10.93;10.43;;;;;;;;;;5058862;28;20146;-70
2022/12/07 11:36:41;;;;;;;10.70;10.20;;;;;;;;;;5054291;28;20062;-70
2022/12/07 11:39:15;;;;;;;10.52;10.02;;;;;;;;;;5055286;28;20477;-71
2022/12/07 11:41:42;;;;;;;12.45;11.77;;;;;;;;;;5050464;28;20479;-70
2022/12/07 11:44:17;;;;;;;9.77;9.38;;;;;;;;;;5052802;28;20027;-72
2022/12/07 11:46:55;;;;;;;10.48;9.98;;;;;;;;;;5054376;28;20028;-69
2022/12/07 11:49:27;;;;;;;9.80;9.40;;;;;;;;;;5052700;28;20025;-67
2022/12/07 11:51:55;;;;;;;10.55;10.05;;;;;;;;;;5055775;28;20476;-69
2022/12/07 11:54:26;;;;;;;10.50;10.00;;;;;;;;;;5057369;28;20030;-68
2022/12/07 11:56:53;;;;;;;10.75;10.25;;;;;;;;;;5054885;28;20060;-68
2022/12/07 11:59:35;;;;;;;9.77;9.38;;;;;;;;;;5056628;28;20115;-70
2022/12/07 12:02:18;;;;;;;10.60;10.10;;;;;;;;;;5056326;28;20017;-72
2022/12/07 12:04:53;;;;;;;10.73;10.23;;;;;;;;;;5044016;28;20107;-71
2022/12/07 12:07:21;;;;;;;10.05;9.55;;;;;;;;;;5054246;28;20476;-71
2022/12/07 12:09:53;;;;;;;10.55;10.05;;;;;;;;;;5051219;28;20017;-71
2022/12/07 12:12:30;;;;;;;10.90;10.40;;;;;;;;;;5051021;28;20076;-65
2022/12/07 12:15:01;;;;;;;11.73;11.13;;;;;;;;;;5054244;28;20077;-65
2022/12/07 12:17:39;;;;;;;11.40;10.80;;;;;;;;;;5052196;28;20727;-65
2022/12/07 12:20:23;;;;;;;10.25;9.75;;;;;;;;;;5052626;28;20025;-65
2022/12/07 12:22:54;;;;;;;10.77;10.27;;;;;;;;;;5047369;28;20017;-65
2022/12/07 12:25:19;;;;;;;10.80;10.30;;;;;;;;;;5054722;28;20034;-65
2022/12/07 12:27:46;;;;;;;10.77;10.27;;;;;;;;;;5051896;28;20032;-69
2022/12/07 12:30:30;;;;;;;11.05;10.50;;;;;;;;;;5056214;28;20029;-68
2022/12/07 12:33:01;;;;;;;10.93;10.43;;;;;;;;;;5060244;28;20020;-67
2022/12/07 12:35:31;;;;;;;11.10;10.60;;;;;;;;;;5054613;28;20033;-67
2022/12/07 12:38:17;;;;;;;10.15;9.65;;;;;;;;;;5049299;28;21206;-69
2022/12/07 12:40:43;;;;;;;10.38;9.88;;;;;;;;;;5047737;28;20112;-70
2022/12/07 12:43:28;;;;;;;10.30;9.80;;;;;;;;;;5051868;28;20400;-70
2022/12/07 12:46:13;;;;;;;10.73;10.23;;;;;;;;;;5049639;28;20083;-68
2022/12/07 12:48:38;;;;;;;10.68;10.15;;;;;;;;;;5055791;28;20097;-70
2022/12/07 12:51:22;;;;;;;10.75;10.23;;;;;;;;;;5056239;28;20104;-67
2022/12/07 12:53:48;;;;;;;10.70;10.20;;;;;;;;;;5054693;28;20032;-68
2022/12/07 12:56:13;;;;;;;10.18;9.68;;;;;;;;;;5054109;28;20033;-67
2022/12/07 12:58:40;;;;;;;10.82;10.32;;;;;;;;;;5055391;28;20020;-68
2022/12/07 13:01:26;;;;;;;9.68;9.27;;;;;;;;;;5055784;28;20028;-66
2022/12/07 13:03:52;;;;;;;11.60;11.00;;;;;;;;;;5043025;28;20034;-66
2022/12/07 13:06:18;;;;;;;11.25;10.65;;;;;;;;;;5052392;28;20477;-68
2022/12/07 13:08:43;;;;;;;11.15;10.55;;;;;;;;;;5052603;28;20078;-67
2022/12/07 13:11:20;;;;;;;10.35;9.85;;;;;;;;;;5057166;28;20116;-67
2022/12/07 13:13:45;;;;;;;10.65;10.15;;;;;;;;;;5056207;28;20123;-67
2022/12/07 13:16:11;;;;;;;10.73;10.23;;;;;;;;;;5062210;28;20032;-66
2022/12/07 13:18:37;;;;;;;11.30;10.70;;;;;;;;;;5054577;28;20085;-66
2022/12/07 13:21:08;;;;;;;10.25;9.75;;;;;;;;;;5059448;28;20024;-66
2022/12/07 13:23:34;;;;;;;10.30;9.80;;;;;;;;;;5055594;28;20025;-66
2022/12/07 13:26:01;;;;;;;9.73;9.32;;;;;;;;;;5050077;28;20026;-66
2022/12/07 13:28:32;;;;;;;10.95;10.43;;;;;;;;;;5055652;28;20023;-66
2022/12/07 13:31:01;;;;;;;10.60;10.10;;;;;;;;;;5042272;28;20045;-65
2022/12/07 13:33:28;;;;;;;10.32;9.82;;;;;;;;;;5047457;28;20033;-66
2022/12/07 13:35:54;;;;;;;10.27;9.77;;;;;;;;;;5057003;28;20012;-68
2022/12/07 13:38:38;;;;;;;10.95;10.38;;;;;;;;;;5056398;28;20021;-67
2022/12/07 13:41:04;;;;;;;;;;;;;;;;;;5054310;28;20014;-68
2022/12/07 13:43:29;;;;;;;11.48;10.88;;;;;;;;;;5054972;28;19908;-66
2022/12/07 13:45:58;;;;;;;10.75;10.25;;;;;;;;;;5046239;28;20036;-67
2022/12/07 13:48:42;;;;;;;11.57;10.98;;;;;;;;;;5051508;28;20063;-68
2022/12/07 13:51:07;;;;;;;;;;;;;;;;;;5053910;28;20021;-66
2022/12/07 13:53:33;;;;;;;10.57;10.07;;;;;;;;;;5056738;28;19909;-68
2022/12/07 13:55:59;;;;;;;11.63;11.02;;;;;;;;;;5053159;28;20029;-67
2022/12/07 13:58:25;;;;;;;11.27;10.68;;;;;;;;;;5051980;28;20016;-70
2022/12/07 14:00:50;;;;;;;11.75;11.15;;;;;;;;;;5049248;28;20028;-66
2022/12/07 14:03:16;;;;;;;10.48;9.98;;;;;;;;;;5056953;28;20328;-65
2022/12/07 14:05:42;;;;;;;10.68;10.18;;;;;;;;;;5054607;28;20032;-71
2022/12/07 14:08:10;;;;;;;11.23;10.63;;;;;;;;;;5050240;28;20032;-67
2022/12/07 14:10:38;;;;;;;10.05;9.55;;;;;;;;;;5054823;28;20021;-67
2022/12/07 14:13:22;;;;;;;11.32;10.73;;;;;;;;;;5054408;28;20491;-67
2022/12/07 14:15:50;;;;;;;11.23;10.63;;;;;;;;;;5044273;28;20151;-67
2022/12/07 14:18:26;;;;;;;10.60;10.10;;;;;;;;;;5055127;28;20048;-66
2022/12/07 14:21:01;;;;;;;11.55;10.95;;;;;;;;;;5048967;28;20021;-67
2022/12/07 14:23:27;;;;;;;10.48;9.98;;;;;;;;;;5051560;28;20554;-66
2022/12/07 14:25:53;;;;;;;10.23;9.73;;;;;;;;;;5056236;28;20032;-66
2022/12/07 14:28:26;;;;;;;10.60;10.10;;;;;;;;;;5055439;28;20052;-66
2022/12/07 14:30:51;;;;;;;11.45;10.85;;;;;;;;;;5061258;28;20021;-66
2022/12/07 14:33:17;;;;;;;11.93;11.27;;;;;;;;;;5052171;28;20023;-66